Main page
METAR-TAF:

METAR-TAF

Airports :

Yekaterinburg, Russia

Koltsovo Airport

latitude: 56-50N, longitude: 060-38E, elevation: 237 m

Current weather observation

The report was made 40 minutes ago, at 08:30 UTC
Wind 4 kt from the West/Northwest, varying between West and North
Temperature 8°C
Humidity 61%
Pressure 1033 hPa
Visibility 10 km or more
Overcast at a height of 4800 ft

METAR: USSS 230830Z 30002MPS 260V350 9999 OVC048 08/01 Q1033 R26R/010060 NOSIG RMK QFE754/1005

Time: 14:10 (09:10 UTC)

Forecast

The report was made 1 hour and 12 minutes ago, at 07:58 UTC
Forecast valid from 23 at 09 UTC to 24 at 09 UTC
Wind 6 kt from the West
Visibility 10 km or more
Broken clouds at a height of 1100 ft
Scattered clouds at a height of 2000 ft, Cumulonimbus.
Temporary
from 23 at 09 UTC to 23 at 14 UTC
Wind 16 kt from the Northwest
Becoming
from 23 at 14 UTC to 23 at 16 UTC
Visibility: 3100 m
light rain showers

TAF: USSS 230758Z 2309/2409 27003MPS 9999 BKN011 SCT020CB TEMPO 2309/2314 32008MPS BECMG 2314/2316 3100 -SHRA

Weather observations and forecasts of more than 4000 airports (METAR and TAF reports).

The available stations are represented by yellow and red dots on the map.

Hover mouse over dot to see the name of the station.

Then click to see weather observations and forecasts.

To change the map : click on the green buttons with a black cross to zoom in, on the green button with a dash to zoom out, or on the green arrows for adjacent maps.


METAR-TAF: